sensor_id;sensor_type;location;lat;lon;timestamp;pressure;altitude;pressure_sealevel;temperature;humidity
47054;BME280;32811;52.382;5.270;2022-07-06T00:01:12;102595.22;;;13.42;100.00
47054;BME280;32811;52.382;5.270;2022-07-06T00:03:38;102595.91;;;13.35;100.00
47054;BME280;32811;52.382;5.270;2022-07-06T00:06:05;102591.63;;;13.37;100.00
47054;BME280;32811;52.382;5.270;2022-07-06T00:08:32;102596.72;;;13.32;100.00
47054;BME280;32811;52.382;5.270;2022-07-06T00:10:59;102585.25;;;13.22;100.00
47054;BME280;32811;52.382;5.270;2022-07-06T00:13:26;102586.88;;;13.17;100.00
47054;BME280;32811;52.382;5.270;2022-07-06T00:15:53;102587.56;;;13.08;100.00
47054;BME280;32811;52.382;5.270;2022-07-06T00:18:20;102584.78;;;13.01;100.00
47054;BME280;32811;52.382;5.270;2022-07-06T00:20:47;102583.00;;;12.98;100.00
47054;BME280;32811;52.382;5.270;2022-07-06T00:23:14;102587.22;;;12.95;100.00
47054;BME280;32811;52.382;5.270;2022-07-06T00:25:41;102595.84;;;12.94;100.00
47054;BME280;32811;52.382;5.270;2022-07-06T00:28:07;102583.63;;;12.88;100.00
47054;BME280;32811;52.382;5.270;2022-07-06T00:30:34;102585.19;;;12.80;100.00
47054;BME280;32811;52.382;5.270;2022-07-06T00:33:01;102593.06;;;12.84;100.00
47054;BME280;32811;52.382;5.270;2022-07-06T00:35:27;102581.72;;;12.79;100.00
47054;BME280;32811;52.382;5.270;2022-07-06T00:37:54;102579.78;;;12.71;100.00
47054;BME280;32811;52.382;5.270;2022-07-06T00:40:21;102580.69;;;12.73;100.00
47054;BME280;32811;52.382;5.270;2022-07-06T00:42:48;102582.34;;;12.69;100.00
47054;BME280;32811;52.382;5.270;2022-07-06T00:45:16;102581.38;;;12.65;100.00
47054;BME280;32811;52.382;5.270;2022-07-06T00:47:43;102588.38;;;12.70;100.00
47054;BME280;32811;52.382;5.270;2022-07-06T00:50:14;102583.94;;;12.64;100.00
47054;BME280;32811;52.382;5.270;2022-07-06T00:52:42;102584.13;;;12.72;100.00
47054;BME280;32811;52.382;5.270;2022-07-06T00:55:09;102587.56;;;12.71;100.00
47054;BME280;32811;52.382;5.270;2022-07-06T00:57:38;102583.28;;;12.73;100.00
47054;BME280;32811;52.382;5.270;2022-07-06T01:00:07;102587.63;;;12.74;100.00
47054;BME280;32811;52.382;5.270;2022-07-06T01:02:35;102591.13;;;12.76;100.00
47054;BME280;32811;52.382;5.270;2022-07-06T01:05:06;102587.63;;;12.74;100.00
47054;BME280;32811;52.382;5.270;2022-07-06T01:07:34;102600.91;;;12.87;100.00
47054;BME280;32811;52.382;5.270;2022-07-06T01:10:03;102596.53;;;12.85;100.00
47054;BME280;32811;52.382;5.270;2022-07-06T01:12:30;102594.69;;;12.81;100.00
47054;BME280;32811;52.382;5.270;2022-07-06T01:14:57;102590.28;;;12.77;100.00
47054;BME280;32811;52.382;5.270;2022-07-06T01:17:24;102597.28;;;12.81;100.00
47054;BME280;32811;52.382;5.270;2022-07-06T01:19:51;102598.94;;;12.77;100.00
47054;BME280;32811;52.382;5.270;2022-07-06T01:22:18;102590.16;;;12.71;100.00
47054;BME280;32811;52.382;5.270;2022-07-06T01:24:45;102590.09;;;12.69;100.00
47054;BME280;32811;52.382;5.270;2022-07-06T01:27:11;102591.03;;;12.71;100.00
47054;BME280;32811;52.382;5.270;2022-07-06T01:29:38;102595.44;;;12.75;100.00
47054;BME280;32811;52.382;5.270;2022-07-06T01:32:05;102589.34;;;12.73;100.00
47054;BME280;32811;52.382;5.270;2022-07-06T01:34:32;102580.69;;;12.73;100.00
47054;BME280;32811;52.382;5.270;2022-07-06T01:36:59;102571.16;;;12.72;100.00
47054;BME280;32811;52.382;5.270;2022-07-06T01:39:25;102571.22;;;12.75;100.00
47054;BME280;32811;52.382;5.270;2022-07-06T01:41:52;102578.09;;;12.73;100.00
47054;BME280;32811;52.382;5.270;2022-07-06T01:44:18;102574.59;;;12.71;100.00
47054;BME280;32811;52.382;5.270;2022-07-06T01:46:45;102574.63;;;12.72;100.00
47054;BME280;32811;52.382;5.270;2022-07-06T01:49:11;102567.75;;;12.74;100.00
47054;BME280;32811;52.382;5.270;2022-07-06T01:51:38;102572.06;;;12.74;100.00
47054;BME280;32811;52.382;5.270;2022-07-06T01:54:04;102570.25;;;12.70;100.00
47054;BME280;32811;52.382;5.270;2022-07-06T01:56:31;102578.88;;;12.69;100.00
47054;BME280;32811;52.382;5.270;2022-07-06T01:58:57;102582.34;;;12.69;100.00
47054;BME280;32811;52.382;5.270;2022-07-06T02:01:24;102576.38;;;12.73;100.00
47054;BME280;32811;52.382;5.270;2022-07-06T02:03:51;102584.13;;;12.72;100.00
47054;BME280;32811;52.382;5.270;2022-07-06T02:06:17;102574.81;;;12.81;100.00
47054;BME280;32811;52.382;5.270;2022-07-06T02:08:44;102576.53;;;12.79;100.00
47054;BME280;32811;52.382;5.270;2022-07-06T02:11:11;102572.94;;;12.73;100.00
47054;BME280;32811;52.382;5.270;2022-07-06T02:13:38;102574.44;;;12.64;100.00
47054;BME280;32811;52.382;5.270;2022-07-06T02:16:04;102563.94;;;12.58;100.00
47054;BME280;32811;52.382;5.270;2022-07-06T02:18:31;102578.59;;;12.58;100.00
47054;BME280;32811;52.382;5.270;2022-07-06T02:20:58;102569.06;;;12.55;100.00
47054;BME280;32811;52.382;5.270;2022-07-06T02:23:24;102573.22;;;12.49;100.00
47054;BME280;32811;52.382;5.270;2022-07-06T02:25:52;102571.34;;;12.43;100.00
47054;BME280;32811;52.382;5.270;2022-07-06T02:28:19;102580.22;;;12.53;100.00
47054;BME280;32811;52.382;5.270;2022-07-06T02:30:46;102573.28;;;12.52;100.00
47054;BME280;32811;52.382;5.270;2022-07-06T02:33:12;102581.25;;;12.61;100.00
47054;BME280;32811;52.382;5.270;2022-07-06T02:35:39;102584.66;;;12.58;100.00
47054;BME280;32811;52.382;5.270;2022-07-06T02:38:09;102580.72;;;12.74;100.00
47054;BME280;32811;52.382;5.270;2022-07-06T02:40:36;102574.59;;;12.71;100.00
47054;BME280;32811;52.382;5.270;2022-07-06T02:43:02;102571.09;;;12.69;100.00
47054;BME280;32811;52.382;5.270;2022-07-06T02:45:30;102584.22;;;12.76;100.00
47054;BME280;32811;52.382;5.270;2022-07-06T02:47:56;102581.06;;;12.90;100.00
47054;BME280;32811;52.382;5.270;2022-07-06T02:50:24;102574.00;;;12.82;100.00
47054;BME280;32811;52.382;5.270;2022-07-06T02:52:51;102580.06;;;12.83;100.00
47054;BME280;32811;52.382;5.270;2022-07-06T02:55:17;102586.09;;;12.83;100.00
47054;BME280;32811;52.382;5.270;2022-07-06T02:57:44;102586.09;;;12.82;100.00
47054;BME280;32811;52.382;5.270;2022-07-06T03:00:10;102585.25;;;12.83;100.00
47054;BME280;32811;52.382;5.270;2022-07-06T03:02:37;102581.72;;;12.81;100.00
47054;BME280;32811;52.382;5.270;2022-07-06T03:05:04;102581.81;;;12.84;100.00
47054;BME280;32811;52.382;5.270;2022-07-06T03:07:31;102579.16;;;12.81;100.00
47054;BME280;32811;52.382;5.270;2022-07-06T03:09:57;102579.41;;;12.92;100.00
47054;BME280;32811;52.382;5.270;2022-07-06T03:12:24;102582.09;;;12.96;100.00
47054;BME280;32811;52.382;5.270;2022-07-06T03:14:50;102582.13;;;12.99;100.00
47054;BME280;32811;52.382;5.270;2022-07-06T03:17:17;102588.22;;;13.00;100.00
47054;BME280;32811;52.382;5.270;2022-07-06T03:19:44;102597.06;;;13.09;100.00
47054;BME280;32811;52.382;5.270;2022-07-06T03:22:10;102590.09;;;13.07;100.00
47054;BME280;32811;52.382;5.270;2022-07-06T03:24:37;102585.75;;;13.04;100.00
47054;BME280;32811;52.382;5.270;2022-07-06T03:27:03;102588.47;;;13.11;100.00
47054;BME280;32811;52.382;5.270;2022-07-06T03:29:30;102584.97;;;13.08;100.00
47054;BME280;32811;52.382;5.270;2022-07-06T03:31:56;102585.03;;;13.12;100.00
47054;BME280;32811;52.382;5.270;2022-07-06T03:34:23;102585.16;;;13.18;100.00
47054;BME280;32811;52.382;5.270;2022-07-06T03:36:50;102593.09;;;13.24;100.00
47054;BME280;32811;52.382;5.270;2022-07-06T03:39:16;102585.31;;;13.24;100.00
47054;BME280;32811;52.382;5.270;2022-07-06T03:41:43;102588.91;;;13.29;100.00
47054;BME280;32811;52.382;5.270;2022-07-06T03:44:10;102582.72;;;13.25;100.00
47054;BME280;32811;52.382;5.270;2022-07-06T03:46:36;102587.16;;;13.29;100.00
47054;BME280;32811;52.382;5.270;2022-07-06T03:49:03;102582.84;;;13.30;100.00
47054;BME280;32811;52.382;5.270;2022-07-06T03:51:29;102585.69;;;13.41;100.00
47054;BME280;32811;52.382;5.270;2022-07-06T03:53:56;102581.66;;;13.57;100.00
47054;BME280;32811;52.382;5.270;2022-07-06T03:56:22;102582.72;;;13.65;100.00
47054;BME280;32811;52.382;5.270;2022-07-06T03:59:00;102568.09;;;13.70;100.00
47054;BME280;32811;52.382;5.270;2022-07-06T04:01:27;102575.88;;;13.70;100.00
47054;BME280;32811;52.382;5.270;2022-07-06T04:03:54;102580.31;;;13.76;100.00
47054;BME280;32811;52.382;5.270;2022-07-06T04:06:20;102582.09;;;13.78;100.00
47054;BME280;32811;52.382;5.270;2022-07-06T04:08:47;102587.28;;;13.78;100.00
47054;BME280;32811;52.382;5.270;2022-07-06T04:11:14;102584.09;;;13.93;100.00
47054;BME280;32811;52.382;5.270;2022-07-06T04:13:40;102577.25;;;13.97;100.00
47054;BME280;32811;52.382;5.270;2022-07-06T04:16:07;102561.63;;;13.95;100.00
47054;BME280;32811;52.382;5.270;2022-07-06T04:18:34;102578.47;;;14.16;100.00
47054;BME280;32811;52.382;5.270;2022-07-06T04:21:02;102583.81;;;14.25;100.00
47054;BME280;32811;52.382;5.270;2022-07-06T04:23:29;102582.09;;;14.25;100.00
47054;BME280;32811;52.382;5.270;2022-07-06T04:25:55;102577.00;;;14.31;100.00
47054;BME280;32811;52.382;5.270;2022-07-06T04:28:22;102580.53;;;14.37;100.00
47054;BME280;32811;52.382;5.270;2022-07-06T04:30:49;102584.06;;;14.42;100.00
47054;BME280;32811;52.382;5.270;2022-07-06T04:33:16;102584.25;;;14.52;100.00
47054;BME280;32811;52.382;5.270;2022-07-06T04:35:42;102566.03;;;14.49;100.00
47054;BME280;32811;52.382;5.270;2022-07-06T04:38:09;102582.63;;;14.58;100.00
47054;BME280;32811;52.382;5.270;2022-07-06T04:40:35;102585.22;;;14.58;100.00
47054;BME280;32811;52.382;5.270;2022-07-06T04:43:02;102589.63;;;14.62;100.00
47054;BME280;32811;52.382;5.270;2022-07-06T04:45:29;102587.81;;;14.56;100.00
47054;BME280;32811;52.382;5.270;2022-07-06T04:47:55;102580.09;;;14.61;100.00
47054;BME280;32811;52.382;5.270;2022-07-06T04:50:22;102579.19;;;14.59;100.00
47054;BME280;32811;52.382;5.270;2022-07-06T04:52:49;102582.66;;;14.59;100.00
47054;BME280;32811;52.382;5.270;2022-07-06T04:55:15;102586.25;;;14.67;100.00
47054;BME280;32811;52.382;5.270;2022-07-06T04:57:42;102594.03;;;14.66;100.00
47054;BME280;32811;52.382;5.270;2022-07-06T05:00:09;102589.00;;;14.77;100.00
47054;BME280;32811;52.382;5.270;2022-07-06T05:02:36;102587.34;;;14.80;100.00
47054;BME280;32811;52.382;5.270;2022-07-06T05:05:03;102589.22;;;14.93;100.00
47054;BME280;32811;52.382;5.270;2022-07-06T05:07:30;102596.38;;;15.08;100.00
47054;BME280;32811;52.382;5.270;2022-07-06T05:09:58;102572.84;;;14.99;100.00
47054;BME280;32811;52.382;5.270;2022-07-06T05:12:25;102600.94;;;15.23;100.00
47054;BME280;32811;52.382;5.270;2022-07-06T05:14:51;102599.31;;;15.33;100.00
47054;BME280;32811;52.382;5.270;2022-07-06T05:17:18;102592.38;;;15.33;100.00
47054;BME280;32811;52.382;5.270;2022-07-06T05:19:44;102601.44;;;15.65;100.00
47054;BME280;32811;52.382;5.270;2022-07-06T05:22:11;102599.09;;;15.83;99.66
47054;BME280;32811;52.382;5.270;2022-07-06T05:24:37;102600.34;;;16.25;89.11
47054;BME280;32811;52.382;5.270;2022-07-06T05:27:04;102605.09;;;16.75;91.19
47054;BME280;32811;52.382;5.270;2022-07-06T05:29:31;102601.84;;;17.02;84.32
47054;BME280;32811;52.382;5.270;2022-07-06T05:31:57;102603.81;;;17.54;79.93
47054;BME280;32811;52.382;5.270;2022-07-06T05:34:24;102602.09;;;17.62;80.75
47054;BME280;32811;52.382;5.270;2022-07-06T05:36:50;102604.50;;;17.16;80.92
47054;BME280;32811;52.382;5.270;2022-07-06T05:39:17;102606.50;;;17.74;78.03
47054;BME280;32811;52.382;5.270;2022-07-06T05:41:47;102602.22;;;17.99;74.51
47054;BME280;32811;52.382;5.270;2022-07-06T05:44:15;102598.78;;;18.51;79.77
47054;BME280;32811;52.382;5.270;2022-07-06T05:46:41;102600.53;;;18.78;74.60
47054;BME280;32811;52.382;5.270;2022-07-06T05:49:08;102605.72;;;19.09;72.11
47054;BME280;32811;52.382;5.270;2022-07-06T05:51:53;102610.78;;;19.52;70.50
47054;BME280;32811;52.382;5.270;2022-07-06T05:54:20;102609.78;;;19.81;67.68
47054;BME280;32811;52.382;5.270;2022-07-06T05:56:47;102603.66;;;19.82;67.31
47054;BME280;32811;52.382;5.270;2022-07-06T05:59:13;102604.28;;;20.21;68.59
47054;BME280;32811;52.382;5.270;2022-07-06T06:01:40;102610.19;;;20.44;67.88
47054;BME280;32811;52.382;5.270;2022-07-06T06:04:07;102609.13;;;20.70;65.46
47054;BME280;32811;52.382;5.270;2022-07-06T06:06:33;102611.84;;;20.58;62.29
47054;BME280;32811;52.382;5.270;2022-07-06T06:09:00;102609.38;;;20.38;62.64
47054;BME280;32811;52.382;5.270;2022-07-06T06:11:26;102606.34;;;19.74;66.86
47054;BME280;32811;52.382;5.270;2022-07-06T06:13:53;102610.69;;;19.64;65.55
47054;BME280;32811;52.382;5.270;2022-07-06T06:16:20;102610.09;;;19.02;68.55
47054;BME280;32811;52.382;5.270;2022-07-06T06:18:46;102612.72;;;18.58;70.02
47054;BME280;32811;52.382;5.270;2022-07-06T06:21:13;102617.09;;;18.77;72.43
47054;BME280;32811;52.382;5.270;2022-07-06T06:23:40;102615.19;;;19.39;68.70
47054;BME280;32811;52.382;5.270;2022-07-06T06:26:06;102609.81;;;19.75;65.78
47054;BME280;32811;52.382;5.270;2022-07-06T06:28:33;102616.56;;;20.14;65.18
47054;BME280;32811;52.382;5.270;2022-07-06T06:30:59;102618.00;;;20.50;64.18
47054;BME280;32811;52.382;5.270;2022-07-06T06:33:26;102610.09;;;20.60;64.80
47054;BME280;32811;52.382;5.270;2022-07-06T06:35:53;102613.53;;;20.65;64.34
47054;BME280;32811;52.382;5.270;2022-07-06T06:38:22;102620.09;;;21.09;61.30
47054;BME280;32811;52.382;5.270;2022-07-06T06:40:53;102626.94;;;21.22;63.13
47054;BME280;32811;52.382;5.270;2022-07-06T06:43:20;102623.19;;;21.45;62.23
47054;BME280;32811;52.382;5.270;2022-07-06T06:45:46;102620.91;;;21.15;60.77
47054;BME280;32811;52.382;5.270;2022-07-06T06:48:13;102623.56;;;21.11;60.87
47054;BME280;32811;52.382;5.270;2022-07-06T06:50:43;102628.78;;;21.14;61.72
47054;BME280;32811;52.382;5.270;2022-07-06T06:53:10;102624.41;;;21.14;62.01
47054;BME280;32811;52.382;5.270;2022-07-06T06:55:37;102626.16;;;21.14;59.81
47054;BME280;32811;52.382;5.270;2022-07-06T06:58:03;102629.75;;;21.05;61.63
47054;BME280;32811;52.382;5.270;2022-07-06T07:00:30;102625.50;;;20.93;59.87
47054;BME280;32811;52.382;5.270;2022-07-06T07:02:56;102628.50;;;20.57;63.45
47054;BME280;32811;52.382;5.270;2022-07-06T07:05:23;102629.09;;;20.85;60.90
47054;BME280;32811;52.382;5.270;2022-07-06T07:07:49;102630.03;;;20.79;60.85
47054;BME280;32811;52.382;5.270;2022-07-06T07:10:16;102631.50;;;21.05;60.12
47054;BME280;32811;52.382;5.270;2022-07-06T07:12:46;102620.09;;;21.09;60.52
47054;BME280;32811;52.382;5.270;2022-07-06T07:15:14;102633.81;;;21.34;62.45
47054;BME280;32811;52.382;5.270;2022-07-06T07:17:40;102636.63;;;21.17;60.18
47054;BME280;32811;52.382;5.270;2022-07-06T07:20:08;102634.22;;;20.96;62.87
47054;BME280;32811;52.382;5.270;2022-07-06T07:22:35;102625.16;;;21.24;59.32
47054;BME280;32811;52.382;5.270;2022-07-06T07:25:02;102634.72;;;21.31;61.45
47054;BME280;32811;52.382;5.270;2022-07-06T07:27:29;102634.97;;;21.10;61.93
47054;BME280;32811;52.382;5.270;2022-07-06T07:29:55;102627.31;;;21.66;60.11
47054;BME280;32811;52.382;5.270;2022-07-06T07:32:22;102630.84;;;20.84;61.28
47054;BME280;32811;52.382;5.270;2022-07-06T07:34:48;102632.38;;;21.07;59.22
47054;BME280;32811;52.382;5.270;2022-07-06T07:37:15;102626.06;;;21.23;59.31
47054;BME280;32811;52.382;5.270;2022-07-06T07:39:42;102631.22;;;21.31;60.95
47054;BME280;32811;52.382;5.270;2022-07-06T07:42:08;102639.00;;;21.40;61.87
47054;BME280;32811;52.382;5.270;2022-07-06T07:44:43;102637.41;;;21.25;56.67
47054;BME280;32811;52.382;5.270;2022-07-06T07:47:09;102613.88;;;21.18;59.42
47054;BME280;32811;52.382;5.270;2022-07-06T07:49:36;102631.06;;;20.61;60.60
47054;BME280;32811;52.382;5.270;2022-07-06T07:52:02;102626.38;;;20.94;59.13
47054;BME280;32811;52.382;5.270;2022-07-06T07:54:29;102627.16;;;21.04;59.85
47054;BME280;32811;52.382;5.270;2022-07-06T07:56:56;102624.16;;;21.36;58.32
47054;BME280;32811;52.382;5.270;2022-07-06T07:59:23;102624.72;;;21.63;55.56
47054;BME280;32811;52.382;5.270;2022-07-06T08:01:49;102632.16;;;21.25;55.00
47054;BME280;32811;52.382;5.270;2022-07-06T08:04:16;102620.66;;;21.34;55.43
47054;BME280;32811;52.382;5.270;2022-07-06T08:06:43;102613.34;;;21.61;55.61
47054;BME280;32811;52.382;5.270;2022-07-06T08:09:10;102620.59;;;21.39;59.28
47054;BME280;32811;52.382;5.270;2022-07-06T08:11:36;102630.22;;;21.46;57.07
47054;BME280;32811;52.382;5.270;2022-07-06T08:14:03;102626.78;;;21.36;57.01
47054;BME280;32811;52.382;5.270;2022-07-06T08:16:31;102620.78;;;21.25;57.90
47054;BME280;32811;52.382;5.270;2022-07-06T08:18:58;102625.97;;;21.29;58.91
47054;BME280;32811;52.382;5.270;2022-07-06T08:21:26;102612.75;;;21.42;58.72
47054;BME280;32811;52.382;5.270;2022-07-06T08:23:54;102615.63;;;21.17;57.41
47054;BME280;32811;52.382;5.270;2022-07-06T08:26:21;102619.22;;;21.08;55.32
47054;BME280;32811;52.382;5.270;2022-07-06T08:28:48;102623.72;;;19.86;60.11
47054;BME280;32811;52.382;5.270;2022-07-06T08:31:15;102626.41;;;19.69;62.45
47054;BME280;32811;52.382;5.270;2022-07-06T08:34:02;102621.34;;;19.27;67.90
47054;BME280;32811;52.382;5.270;2022-07-06T08:36:29;102622.97;;;19.53;66.08
47054;BME280;32811;52.382;5.270;2022-07-06T08:38:56;102625.56;;;19.64;64.65
47054;BME280;32811;52.382;5.270;2022-07-06T08:41:25;102623.38;;;20.33;60.74
47054;BME280;32811;52.382;5.270;2022-07-06T08:43:54;102615.09;;;20.83;56.91
47054;BME280;32811;52.382;5.270;2022-07-06T08:46:21;102614.63;;;21.27;58.99
47054;BME280;32811;52.382;5.270;2022-07-06T08:48:49;102611.88;;;21.36;54.81
47054;BME280;32811;52.382;5.270;2022-07-06T08:51:16;102615.50;;;21.28;50.46
47054;BME280;32811;52.382;5.270;2022-07-06T08:53:43;102602.13;;;21.49;52.83
47054;BME280;32811;52.382;5.270;2022-07-06T08:56:10;102610.44;;;21.81;52.81
47054;BME280;32811;52.382;5.270;2022-07-06T08:58:37;102610.38;;;21.87;53.43
47054;BME280;32811;52.382;5.270;2022-07-06T09:01:11;102604.09;;;21.29;54.95
47054;BME280;32811;52.382;5.270;2022-07-06T09:03:40;102608.84;;;20.96;55.32
47054;BME280;32811;52.382;5.270;2022-07-06T09:06:07;102609.94;;;20.77;57.90
47054;BME280;32811;52.382;5.270;2022-07-06T09:08:35;102617.09;;;20.58;58.60
47054;BME280;32811;52.382;5.270;2022-07-06T09:11:04;102615.97;;;20.86;57.13
47054;BME280;32811;52.382;5.270;2022-07-06T09:13:31;102613.28;;;20.89;56.06
47054;BME280;32811;52.382;5.270;2022-07-06T09:16:11;102615.03;;;20.90;51.46
47054;BME280;32811;52.382;5.270;2022-07-06T09:18:58;102614.88;;;21.06;58.70
47054;BME280;32811;52.382;5.270;2022-07-06T09:21:29;102619.28;;;21.01;57.57
47054;BME280;32811;52.382;5.270;2022-07-06T09:24:06;102611.72;;;20.73;55.56
47054;BME280;32811;52.382;5.270;2022-07-06T09:26:33;102613.53;;;20.65;58.19
47054;BME280;32811;52.382;5.270;2022-07-06T09:29:03;102615.09;;;20.83;56.13
47054;BME280;32811;52.382;5.270;2022-07-06T09:31:30;102616.88;;;20.82;58.97
47054;BME280;32811;52.382;5.270;2022-07-06T09:33:58;102620.09;;;21.10;54.68
47054;BME280;32811;52.382;5.270;2022-07-06T09:36:39;102622.34;;;21.43;54.41
47054;BME280;32811;52.382;5.270;2022-07-06T09:39:26;102608.03;;;21.67;53.24
47054;BME280;32811;52.382;5.270;2022-07-06T09:41:55;102619.31;;;21.73;54.11
47054;BME280;32811;52.382;5.270;2022-07-06T09:47:01;102630.09;;;21.55;50.44
47054;BME280;32811;52.382;5.270;2022-07-06T09:49:28;102631.88;;;21.50;52.19
47054;BME280;32811;52.382;5.270;2022-07-06T09:51:57;102632.34;;;21.81;51.57
47054;BME280;32811;52.382;5.270;2022-07-06T09:54:24;102634.66;;;22.04;51.79
47054;BME280;32811;52.382;5.270;2022-07-06T09:56:52;102620.53;;;22.11;47.68
47054;BME280;32811;52.382;5.270;2022-07-06T09:59:28;102614.72;;;22.47;52.80
47054;BME280;32811;52.382;5.270;2022-07-06T10:01:57;102613.53;;;22.63;49.81
47054;BME280;32811;52.382;5.270;2022-07-06T10:04:26;102609.63;;;22.86;51.08
47054;BME280;32811;52.382;5.270;2022-07-06T10:06:54;102601.50;;;22.98;49.09
47054;BME280;32811;52.382;5.270;2022-07-06T10:09:23;102609.38;;;23.01;46.58
47054;BME280;32811;52.382;5.270;2022-07-06T10:11:52;102612.63;;;22.66;48.11
47054;BME280;32811;52.382;5.270;2022-07-06T10:14:25;102605.31;;;22.82;45.11
47054;BME280;32811;52.382;5.270;2022-07-06T10:16:52;102612.50;;;22.72;47.80
47054;BME280;32811;52.382;5.270;2022-07-06T10:19:20;102606.91;;;22.42;45.10
47054;BME280;32811;52.382;5.270;2022-07-06T10:21:48;102608.44;;;22.55;47.12
47054;BME280;32811;52.382;5.270;2022-07-06T10:24:15;102614.81;;;22.41;47.02
47054;BME280;32811;52.382;5.270;2022-07-06T10:26:42;102598.41;;;22.76;46.93
47054;BME280;32811;52.382;5.270;2022-07-06T10:29:09;102615.63;;;22.94;47.59
47054;BME280;32811;52.382;5.270;2022-07-06T10:31:39;102605.22;;;22.86;46.02
47054;BME280;32811;52.382;5.270;2022-07-06T10:34:10;102601.03;;;22.76;48.28
47054;BME280;32811;52.382;5.270;2022-07-06T10:36:39;102597.41;;;22.32;48.91
47054;BME280;32811;52.382;5.270;2022-07-06T10:39:06;102597.84;;;22.57;49.32
47054;BME280;32811;52.382;5.270;2022-07-06T10:41:52;102590.88;;;22.54;46.14
47054;BME280;32811;52.382;5.270;2022-07-06T10:44:25;102590.50;;;21.67;46.59
47054;BME280;32811;52.382;5.270;2022-07-06T10:46:56;102599.47;;;21.51;49.33
47054;BME280;32811;52.382;5.270;2022-07-06T10:49:24;102596.69;;;20.87;49.53
47054;BME280;32811;52.382;5.270;2022-07-06T10:52:10;102605.59;;;21.50;51.03
47054;BME280;32811;52.382;5.270;2022-07-06T10:54:42;102579.75;;;21.84;47.95
47054;BME280;32811;52.382;5.270;2022-07-06T10:57:10;102589.63;;;22.26;45.38
47054;BME280;32811;52.382;5.270;2022-07-06T11:00:00;102570.78;;;22.50;45.33
47054;BME280;32811;52.382;5.270;2022-07-06T11:02:37;102575.59;;;22.75;44.77
47054;BME280;32811;52.382;5.270;2022-07-06T11:05:10;102577.19;;;22.84;43.97
47054;BME280;32811;52.382;5.270;2022-07-06T11:07:49;102569.34;;;22.82;44.60
47054;BME280;32811;52.382;5.270;2022-07-06T11:10:16;102576.97;;;22.96;43.27
47054;BME280;32811;52.382;5.270;2022-07-06T11:12:46;102571.69;;;22.96;42.22
47054;BME280;32811;52.382;5.270;2022-07-06T11:15:47;102568.25;;;22.92;43.75
47054;BME280;32811;52.382;5.270;2022-07-06T11:18:19;102559.75;;;22.78;44.99
47054;BME280;32811;52.382;5.270;2022-07-06T11:21:18;102551.28;;;23.09;42.32
47054;BME280;32811;52.382;5.270;2022-07-06T11:23:47;102536.44;;;22.59;40.34
47054;BME280;32811;52.382;5.270;2022-07-06T11:26:15;102542.72;;;22.51;43.71
47054;BME280;32811;52.382;5.270;2022-07-06T11:28:45;102531.63;;;22.80;43.26
47054;BME280;32811;52.382;5.270;2022-07-06T11:31:11;102533.53;;;22.72;41.18
47054;BME280;32811;52.382;5.270;2022-07-06T11:33:41;102531.06;;;22.64;41.59
47054;BME280;32811;52.382;5.270;2022-07-06T11:36:18;102544.44;;;23.00;43.72
47054;BME280;32811;52.382;5.270;2022-07-06T11:38:46;102535.19;;;23.23;44.70
47054;BME280;32811;52.382;5.270;2022-07-06T11:41:15;102529.22;;;23.13;42.61
47054;BME280;32811;52.382;5.270;2022-07-06T11:43:43;102511.63;;;22.71;42.14
47054;BME280;32811;52.382;5.270;2022-07-06T11:46:22;102526.78;;;23.04;42.53
47054;BME280;32811;52.382;5.270;2022-07-06T11:48:50;102518.00;;;23.05;42.30
47054;BME280;32811;52.382;5.270;2022-07-06T11:51:17;102520.34;;;23.17;44.24
47054;BME280;32811;52.382;5.270;2022-07-06T11:53:46;102522.44;;;23.41;44.00
47054;BME280;32811;52.382;5.270;2022-07-06T11:56:20;102526.25;;;23.67;43.94
47054;BME280;32811;52.382;5.270;2022-07-06T11:58:49;102523.22;;;23.86;43.51
47054;BME280;32811;52.382;5.270;2022-07-06T12:01:16;102521.53;;;23.83;42.26
47054;BME280;32811;52.382;5.270;2022-07-06T12:03:43;102519.59;;;23.90;41.00
47054;BME280;32811;52.382;5.270;2022-07-06T12:06:17;102528.31;;;23.54;43.50
47054;BME280;32811;52.382;5.270;2022-07-06T12:08:46;102527.66;;;23.45;42.84
47054;BME280;32811;52.382;5.270;2022-07-06T12:11:29;102522.47;;;23.80;43.68
47054;BME280;32811;52.382;5.270;2022-07-06T12:14:12;102521.75;;;23.71;44.37
47054;BME280;32811;52.382;5.270;2022-07-06T12:16:40;102518.88;;;23.44;45.65
47054;BME280;32811;52.382;5.270;2022-07-06T12:19:06;102510.88;;;23.08;42.62
47054;BME280;32811;52.382;5.270;2022-07-06T12:21:34;102510.75;;;22.71;43.81
47054;BME280;32811;52.382;5.270;2022-07-06T12:24:01;102504.78;;;23.06;43.38
47054;BME280;32811;52.382;5.270;2022-07-06T12:26:28;102497.97;;;22.94;43.91
47054;BME280;32811;52.382;5.270;2022-07-06T12:29:12;102513.53;;;22.63;46.16
47054;BME280;32811;52.382;5.270;2022-07-06T12:31:51;102516.41;;;22.51;45.31
47054;BME280;32811;52.382;5.270;2022-07-06T12:34:23;102503.75;;;22.70;44.75
47054;BME280;32811;52.382;5.270;2022-07-06T12:36:51;102506.66;;;22.54;47.37
47054;BME280;32811;52.382;5.270;2022-07-06T12:39:20;102507.25;;;22.70;48.08
47054;BME280;32811;52.382;5.270;2022-07-06T12:41:52;102507.34;;;22.66;43.46
47054;BME280;32811;52.382;5.270;2022-07-06T12:44:21;102505.72;;;22.58;44.98
47054;BME280;32811;52.382;5.270;2022-07-06T12:49:27;102480.00;;;22.73;44.28
47054;BME280;32811;52.382;5.270;2022-07-06T12:54:33;102489.53;;;23.22;46.30
47054;BME280;32811;52.382;5.270;2022-07-06T12:57:04;102484.50;;;23.11;44.56
47054;BME280;32811;52.382;5.270;2022-07-06T12:59:35;102493.19;;;23.15;44.67